createdAt,value
2018-06-15T00:00:20.393Z,95480.00
2018-06-15T00:02:54.722Z,95475.00
2018-06-15T00:05:23.886Z,95482.00
2018-06-15T00:07:53.027Z,95483.00
2018-06-15T00:10:22.301Z,95484.00
2018-06-15T00:12:51.661Z,95482.00
2018-06-15T00:15:20.861Z,95476.00
2018-06-15T00:17:50.073Z,95478.00
2018-06-15T00:20:19.333Z,95485.00
2018-06-15T00:22:48.446Z,95481.00
2018-06-15T00:25:17.650Z,95477.00
2018-06-15T00:27:46.866Z,95474.00
2018-06-15T00:30:18.109Z,95471.00
2018-06-15T00:32:47.350Z,95465.00
2018-06-15T00:35:16.561Z,95468.00
2018-06-15T00:37:45.691Z,95469.00
2018-06-15T00:40:14.854Z,95460.00
2018-06-15T00:42:44.029Z,95470.00
2018-06-15T00:45:13.018Z,95470.00
2018-06-15T00:47:42.173Z,95454.00
2018-06-15T00:50:11.430Z,95462.00
2018-06-15T00:52:40.606Z,95463.00
2018-06-15T00:55:09.725Z,95466.00
2018-06-15T00:57:49.895Z,95469.00
2018-06-15T01:00:19.013Z,95470.00
2018-06-15T01:02:48.178Z,95477.00
2018-06-15T01:05:17.281Z,95470.00
2018-06-15T01:07:46.431Z,95463.00
2018-06-15T01:10:15.706Z,95477.00
2018-06-15T01:12:44.863Z,95467.00
2018-06-15T01:15:14.058Z,95470.00
2018-06-15T01:17:43.211Z,95470.00
2018-06-15T01:20:12.402Z,95464.00
2018-06-15T01:22:41.553Z,95463.00
2018-06-15T01:25:10.722Z,95462.00
2018-06-15T01:27:39.890Z,95462.00
2018-06-15T01:30:08.986Z,95458.00
2018-06-15T01:32:38.186Z,95464.00
2018-06-15T01:35:07.399Z,95454.00
2018-06-15T01:37:36.566Z,95451.00
2018-06-15T01:40:05.682Z,95449.00
2018-06-15T01:42:34.924Z,95454.00
2018-06-15T01:45:05.042Z,95454.00
2018-06-15T01:47:34.222Z,95459.00
2018-06-15T01:50:03.315Z,95453.00
2018-06-15T01:52:32.426Z,95447.00
2018-06-15T01:55:01.607Z,95444.00
2018-06-15T01:57:30.754Z,95443.00
2018-06-15T01:59:59.882Z,95439.00
2018-06-15T02:02:29.037Z,95453.00
2018-06-15T02:04:58.129Z,95431.00
2018-06-15T02:07:27.278Z,95442.00
2018-06-15T02:09:56.370Z,95448.00
2018-06-15T02:12:25.534Z,95459.00
2018-06-15T02:14:54.664Z,95442.00
2018-06-15T02:17:24.696Z,95446.00
2018-06-15T02:19:53.890Z,95446.00
2018-06-15T02:22:22.998Z,95452.00
2018-06-15T02:24:52.101Z,95447.00
2018-06-15T02:27:21.269Z,95453.00
2018-06-15T02:29:50.391Z,95453.00
2018-06-15T02:32:19.566Z,95451.00
2018-06-15T02:34:48.710Z,95444.00
2018-06-15T02:37:17.993Z,95449.00
2018-06-15T02:39:47.219Z,95451.00
2018-06-15T02:42:16.450Z,95463.00
2018-06-15T02:44:45.596Z,95454.00
2018-06-15T02:47:14.639Z,95452.00
2018-06-15T02:49:43.783Z,95449.00
2018-06-15T02:52:12.899Z,95453.00
2018-06-15T02:54:41.820Z,95451.00
2018-06-15T02:57:10.905Z,95443.00
2018-06-15T02:59:40.119Z,95434.00
2018-06-15T03:02:09.354Z,95436.00
2018-06-15T03:04:38.525Z,95449.00
2018-06-15T03:07:07.633Z,95441.00
2018-06-15T03:09:36.796Z,95448.00
2018-06-15T03:12:05.907Z,95445.00
2018-06-15T03:14:35.059Z,95447.00
2018-06-15T03:17:04.242Z,95445.00
2018-06-15T03:19:33.438Z,95447.00
2018-06-15T03:22:02.682Z,95453.00
2018-06-15T03:24:31.879Z,95444.00
2018-06-15T03:27:01.073Z,95450.00
2018-06-15T03:29:30.288Z,95442.00
2018-06-15T03:31:59.402Z,95449.00
2018-06-15T03:34:28.557Z,95458.00
2018-06-15T03:36:57.771Z,95451.00
2018-06-15T03:39:26.934Z,95449.00
2018-06-15T03:41:55.763Z,95442.00
2018-06-15T03:44:24.869Z,95450.00
2018-06-15T03:46:54.015Z,95448.00
2018-06-15T03:49:22.925Z,95447.00
2018-06-15T03:51:52.058Z,95453.00
2018-06-15T03:54:21.202Z,95459.00
2018-06-15T03:56:50.377Z,95461.00
2018-06-15T03:59:19.526Z,95453.00
2018-06-15T04:01:48.653Z,95446.00
2018-06-15T04:04:17.756Z,95450.00
2018-06-15T04:06:46.954Z,95459.00
2018-06-15T04:09:16.210Z,95452.00
2018-06-15T04:11:45.318Z,95449.00
2018-06-15T04:14:14.470Z,95447.00
2018-06-15T04:16:43.697Z,95449.00
2018-06-15T04:19:12.898Z,95453.00
2018-06-15T04:21:42.039Z,95452.00
2018-06-15T04:24:11.318Z,95448.00
2018-06-15T04:26:40.422Z,95445.00
2018-06-15T04:29:09.565Z,95449.00
2018-06-15T04:31:38.738Z,95463.00
2018-06-15T04:34:08.034Z,95458.00
2018-06-15T04:36:37.197Z,95454.00
2018-06-15T04:39:08.622Z,95449.00
2018-06-15T04:41:37.778Z,95452.00
2018-06-15T04:44:06.989Z,95439.00
2018-06-15T04:46:36.676Z,95450.00
2018-06-15T04:49:05.918Z,95440.00
2018-06-15T04:51:35.093Z,95440.00
2018-06-15T04:54:04.201Z,95441.00
2018-06-15T04:56:33.366Z,95443.00
2018-06-15T04:59:02.538Z,95442.00
2018-06-15T05:01:31.605Z,95436.00
2018-06-15T05:04:00.817Z,95437.00
2018-06-15T05:06:29.969Z,95437.00
2018-06-15T05:08:59.162Z,95444.00
2018-06-15T05:11:28.127Z,95452.00
2018-06-15T05:13:57.350Z,95444.00
2018-06-15T05:16:26.509Z,95445.00
2018-06-15T05:18:55.648Z,95446.00
2018-06-15T05:21:24.753Z,95451.00
2018-06-15T05:23:54.014Z,95453.00
2018-06-15T05:26:23.248Z,95445.00
2018-06-15T05:28:52.395Z,95448.00
2018-06-15T05:31:21.577Z,95449.00
2018-06-15T05:33:50.733Z,95454.00
2018-06-15T05:36:19.903Z,95460.00
2018-06-15T05:38:49.061Z,95461.00
2018-06-15T05:41:18.165Z,95454.00
2018-06-15T05:43:47.225Z,95446.00
2018-06-15T05:46:16.391Z,95449.00
2018-06-15T05:48:45.668Z,95451.00
2018-06-15T05:51:14.790Z,95443.00
2018-06-15T05:53:43.818Z,95449.00
2018-06-15T05:56:12.966Z,95452.00
2018-06-15T05:58:42.126Z,95442.00
2018-06-15T06:01:11.317Z,95442.00
2018-06-15T06:03:40.418Z,95453.00
2018-06-15T06:06:09.579Z,95449.00
2018-06-15T06:08:38.746Z,95463.00
2018-06-15T06:11:08.006Z,95462.00
2018-06-15T06:13:37.123Z,95463.00
2018-06-15T06:16:06.274Z,95464.00
2018-06-15T06:18:35.540Z,95466.00
2018-06-15T06:21:04.646Z,95471.00
2018-06-15T06:23:33.818Z,95464.00
2018-06-15T06:26:02.903Z,95470.00
2018-06-15T06:28:32.075Z,95466.00
2018-06-15T06:31:01.219Z,95462.00
2018-06-15T06:33:30.351Z,95460.00
2018-06-15T06:35:59.502Z,95475.00
2018-06-15T06:38:28.599Z,95468.00
2018-06-15T06:40:57.800Z,95467.00
2018-06-15T06:43:27.139Z,95470.00
2018-06-15T06:45:56.300Z,95473.00
2018-06-15T06:48:25.473Z,95478.00
2018-06-15T06:50:54.625Z,95472.00
2018-06-15T06:53:23.717Z,95473.00
2018-06-15T06:55:52.996Z,95470.00
2018-06-15T06:58:22.126Z,95467.00
2018-06-15T07:00:51.214Z,95475.00
2018-06-15T07:03:20.371Z,95481.00
2018-06-15T07:05:49.570Z,95467.00
2018-06-15T07:08:18.741Z,95474.00
2018-06-15T07:10:47.889Z,95471.00
2018-06-15T07:13:17.063Z,95482.00
2018-06-15T07:15:46.176Z,95472.00
2018-06-15T07:18:15.433Z,95472.00
2018-06-15T07:20:44.618Z,95477.00
2018-06-15T07:23:13.702Z,95489.00
2018-06-15T07:25:42.898Z,95476.00
2018-06-15T07:28:12.069Z,95475.00
2018-06-15T07:30:41.264Z,95465.00
2018-06-15T07:33:10.318Z,95468.00
2018-06-15T07:35:39.583Z,95475.00
2018-06-15T07:38:08.721Z,95473.00
2018-06-15T07:40:37.854Z,95477.00
2018-06-15T07:43:07.199Z,95477.00
2018-06-15T07:45:36.318Z,95474.00
2018-06-15T07:48:05.461Z,95484.00
2018-06-15T07:50:34.648Z,95474.00
2018-06-15T07:53:03.974Z,95477.00
2018-06-15T07:55:33.074Z,95484.00
2018-06-15T07:58:02.409Z,95482.00
2018-06-15T08:00:31.515Z,95479.00
2018-06-15T08:03:00.706Z,95489.00
2018-06-15T08:05:29.905Z,95485.00
2018-06-15T08:07:59.121Z,95479.00
2018-06-15T08:10:28.286Z,95473.00
2018-06-15T08:12:57.553Z,95472.00
2018-06-15T08:15:26.705Z,95484.00
2018-06-15T08:17:55.601Z,95482.00
2018-06-15T08:20:24.474Z,95476.00
2018-06-15T08:22:53.934Z,95471.00
2018-06-15T08:25:22.998Z,95474.00
2018-06-15T08:27:52.227Z,95472.00
2018-06-15T08:30:21.269Z,95466.00
2018-06-15T08:32:50.100Z,95465.00
2018-06-15T08:35:19.253Z,95472.00
2018-06-15T08:37:48.353Z,95468.00
2018-06-15T08:40:17.422Z,95470.00
2018-06-15T08:42:46.586Z,95471.00
2018-06-15T08:45:15.718Z,95463.00
2018-06-15T08:47:44.834Z,95465.00
2018-06-15T08:50:14.022Z,95469.00
2018-06-15T08:52:43.290Z,95466.00
2018-06-15T08:55:12.427Z,95460.00
2018-06-15T08:57:41.559Z,95454.00
2018-06-15T09:00:10.621Z,95454.00
2018-06-15T09:02:39.491Z,95454.00
2018-06-15T09:05:08.747Z,95453.00
2018-06-15T09:07:37.869Z,95464.00
2018-06-15T09:10:07.019Z,95453.00
2018-06-15T09:12:36.186Z,95450.00
2018-06-15T09:15:05.434Z,95454.00
2018-06-15T09:17:34.531Z,95442.00
2018-06-15T09:20:03.602Z,95451.00
2018-06-15T09:22:32.834Z,95461.00
2018-06-15T09:25:02.000Z,95446.00
2018-06-15T09:27:31.197Z,95461.00
2018-06-15T09:30:00.287Z,95459.00
2018-06-15T09:32:29.567Z,95460.00
2018-06-15T09:34:58.787Z,95454.00
2018-06-15T09:37:27.938Z,95459.00
2018-06-15T09:39:57.175Z,95449.00
2018-06-15T09:42:26.314Z,95458.00
2018-06-15T09:44:55.450Z,95450.00
2018-06-15T09:47:24.546Z,95445.00
2018-06-15T09:49:53.859Z,95463.00
2018-06-15T09:52:23.046Z,95460.00
2018-06-15T09:54:52.450Z,95459.00
2018-06-15T09:57:23.928Z,95451.00
2018-06-15T09:59:53.053Z,95461.00
2018-06-15T10:02:22.277Z,95460.00
2018-06-15T10:04:51.514Z,95458.00
2018-06-15T10:07:20.696Z,95459.00
2018-06-15T10:09:49.903Z,95463.00
2018-06-15T10:12:18.961Z,95459.00
2018-06-15T10:14:48.194Z,95461.00
2018-06-15T10:17:17.422Z,95468.00
2018-06-15T10:19:46.636Z,95463.00
2018-06-15T10:22:15.828Z,95464.00
2018-06-15T10:24:44.920Z,95471.00
2018-06-15T10:27:13.981Z,95466.00
2018-06-15T10:29:43.030Z,95467.00
2018-06-15T10:32:12.202Z,95468.00
2018-06-15T10:34:41.254Z,95468.00
2018-06-15T10:37:10.410Z,95463.00
2018-06-15T10:39:39.453Z,95462.00
2018-06-15T10:42:08.626Z,95466.00
2018-06-15T10:44:37.799Z,95470.00
2018-06-15T10:47:07.014Z,95464.00
2018-06-15T10:49:36.174Z,95469.00
2018-06-15T10:52:05.667Z,95461.00
2018-06-15T10:54:34.817Z,95452.00
2018-06-15T10:57:03.899Z,95451.00
2018-06-15T10:59:33.062Z,95454.00
2018-06-15T11:02:02.207Z,95448.00
2018-06-15T11:04:31.341Z,95449.00
2018-06-15T11:07:00.574Z,95447.00
2018-06-15T11:09:29.791Z,95445.00
2018-06-15T11:11:58.950Z,95446.00
2018-06-15T11:14:28.105Z,95441.00
2018-06-15T11:16:57.275Z,95437.00
2018-06-15T11:19:26.809Z,95432.00
2018-06-15T11:21:55.981Z,95438.00
2018-06-15T11:24:25.233Z,95448.00
2018-06-15T11:26:54.365Z,95445.00
2018-06-15T11:29:23.522Z,95447.00
2018-06-15T11:31:52.576Z,95438.00
2018-06-15T11:34:21.367Z,95444.00
2018-06-15T11:36:50.663Z,95435.00
2018-06-15T11:39:19.770Z,95439.00
2018-06-15T11:41:48.983Z,95443.00
2018-06-15T11:44:18.094Z,95445.00
2018-06-15T11:46:47.347Z,95434.00
2018-06-15T11:49:16.677Z,95433.00
2018-06-15T11:51:45.845Z,95435.00
2018-06-15T11:54:14.983Z,95434.00
2018-06-15T11:56:44.070Z,95444.00
2018-06-15T11:59:13.219Z,95440.00
2018-06-15T12:01:42.381Z,95436.00
2018-06-15T12:04:11.678Z,95439.00
2018-06-15T12:06:40.765Z,95436.00
2018-06-15T12:09:10.654Z,95438.00
2018-06-15T12:11:39.865Z,95436.00
2018-06-15T12:14:09.087Z,95432.00
2018-06-15T12:16:38.230Z,95437.00
2018-06-15T12:19:07.389Z,95435.00
2018-06-15T12:21:36.763Z,95428.00
2018-06-15T12:24:05.981Z,95436.00
2018-06-15T12:26:35.153Z,95435.00
2018-06-15T12:29:04.391Z,95434.00
2018-06-15T12:31:33.561Z,95435.00
2018-06-15T12:34:02.790Z,95426.00
2018-06-15T12:36:31.906Z,95439.00
2018-06-15T12:39:01.184Z,95429.00
2018-06-15T12:41:30.275Z,95426.00
2018-06-15T12:43:59.408Z,95429.00
2018-06-15T12:46:28.381Z,95426.00
2018-06-15T12:48:59.339Z,95422.00
2018-06-15T12:51:28.850Z,95433.00
2018-06-15T12:53:57.739Z,95426.00
2018-06-15T12:56:26.962Z,95424.00
2018-06-15T12:58:56.158Z,95426.00
2018-06-15T13:01:25.387Z,95419.00
2018-06-15T13:03:54.989Z,95430.00
2018-06-15T13:06:24.164Z,95428.00
2018-06-15T13:08:53.318Z,95422.00
2018-06-15T13:11:22.485Z,95420.00
2018-06-15T13:13:51.622Z,95414.00
2018-06-15T13:16:20.705Z,95416.00
2018-06-15T13:18:49.774Z,95423.00
2018-06-15T13:21:18.929Z,95420.00
2018-06-15T13:23:48.102Z,95418.00
2018-06-15T13:26:17.183Z,95421.00
2018-06-15T13:28:46.363Z,95418.00
2018-06-15T13:31:15.539Z,95420.00
2018-06-15T13:33:44.673Z,95417.00
2018-06-15T13:36:13.901Z,95424.00
2018-06-15T13:38:43.279Z,95413.00
2018-06-15T13:41:12.482Z,95419.00
2018-06-15T13:43:41.622Z,95414.00
2018-06-15T13:46:11.666Z,95417.00
2018-06-15T13:48:40.893Z,95419.00
2018-06-15T13:51:10.058Z,95421.00
2018-06-15T13:53:39.158Z,95421.00
2018-06-15T13:56:08.290Z,95415.00
2018-06-15T13:58:37.474Z,95412.00
2018-06-15T14:01:06.638Z,95415.00
2018-06-15T14:03:35.758Z,95412.00
2018-06-15T14:06:05.010Z,95414.00
2018-06-15T14:08:34.139Z,95410.00
2018-06-15T14:11:03.290Z,95413.00
2018-06-15T14:13:32.548Z,95403.00
2018-06-15T14:16:01.741Z,95399.00
2018-06-15T14:18:30.871Z,95404.00
2018-06-15T14:21:00.094Z,95403.00
2018-06-15T14:23:29.237Z,95402.00
2018-06-15T14:25:58.346Z,95396.00
2018-06-15T14:28:27.535Z,95400.00
2018-06-15T14:30:56.690Z,95400.00
2018-06-15T14:33:25.954Z,95404.00
2018-06-15T14:35:55.166Z,95405.00
2018-06-15T14:38:24.316Z,95398.00
2018-06-15T14:40:53.449Z,95394.00
2018-06-15T14:43:22.581Z,95396.00
2018-06-15T14:45:51.834Z,95396.00
2018-06-15T14:48:21.034Z,95397.00
2018-06-15T14:50:50.229Z,95395.00
2018-06-15T14:53:19.394Z,95390.00
2018-06-15T14:55:48.545Z,95390.00
2018-06-15T14:58:17.698Z,95387.00
2018-06-15T15:00:46.866Z,95380.00
2018-06-15T15:03:16.194Z,95389.00
2018-06-15T15:05:45.343Z,95372.00
2018-06-15T15:08:14.423Z,95380.00
2018-06-15T15:10:43.539Z,95382.00
2018-06-15T15:13:12.634Z,95386.00
2018-06-15T15:15:41.699Z,95384.00
2018-06-15T15:18:10.593Z,95381.00
2018-06-15T15:20:39.694Z,95373.00
2018-06-15T15:23:08.927Z,95385.00
2018-06-15T15:25:38.153Z,95379.00
2018-06-15T15:28:07.321Z,95380.00
2018-06-15T15:30:36.414Z,95376.00
2018-06-15T15:33:05.551Z,95373.00
2018-06-15T15:35:34.681Z,95376.00
2018-06-15T15:38:03.746Z,95369.00
2018-06-15T15:40:32.629Z,95369.00
2018-06-15T15:43:01.867Z,95373.00
2018-06-15T15:45:31.074Z,95370.00
2018-06-15T15:48:00.260Z,95364.00
2018-06-15T15:50:29.432Z,95367.00
2018-06-15T15:52:58.686Z,95364.00
2018-06-15T15:55:27.873Z,95370.00
2018-06-15T15:57:56.997Z,95366.00
2018-06-15T16:00:26.276Z,95374.00
2018-06-15T16:02:55.417Z,95365.00
2018-06-15T16:05:24.574Z,95366.00
2018-06-15T16:07:53.714Z,95360.00
2018-06-15T16:10:22.697Z,95359.00
2018-06-15T16:12:51.835Z,95365.00
2018-06-15T16:15:21.018Z,95361.00
2018-06-15T16:17:50.257Z,95366.00
2018-06-15T16:20:19.434Z,95363.00
2018-06-15T16:22:48.609Z,95367.00
2018-06-15T16:25:17.813Z,95364.00
2018-06-15T16:27:47.069Z,95368.00
2018-06-15T16:30:16.317Z,95362.00
2018-06-15T16:32:45.852Z,95367.00
2018-06-15T16:35:14.990Z,95360.00
2018-06-15T16:37:43.897Z,95371.00
2018-06-15T16:40:13.093Z,95357.00
2018-06-15T16:42:42.274Z,95363.00
2018-06-15T16:45:11.210Z,95365.00
2018-06-15T16:47:40.342Z,95368.00
2018-06-15T16:50:09.526Z,95366.00
2018-06-15T16:52:38.674Z,95368.00
2018-06-15T16:55:07.798Z,95368.00
2018-06-15T16:57:36.942Z,95370.00
2018-06-15T17:00:06.330Z,95373.00
2018-06-15T17:02:35.982Z,95373.00
2018-06-15T17:05:05.092Z,95373.00
2018-06-15T17:07:34.253Z,95380.00
2018-06-15T17:10:03.370Z,95372.00
2018-06-15T17:12:32.476Z,95381.00
2018-06-15T17:15:01.515Z,95375.00
2018-06-15T17:17:30.757Z,95374.00
2018-06-15T17:20:00.205Z,95377.00
2018-06-15T17:22:29.677Z,95385.00
2018-06-15T17:24:58.791Z,95379.00
2018-06-15T17:27:27.957Z,95383.00
2018-06-15T17:29:57.105Z,95384.00
2018-06-15T17:32:26.341Z,95379.00
2018-06-15T17:34:55.496Z,95380.00
2018-06-15T17:37:24.769Z,95387.00
2018-06-15T17:39:54.378Z,95379.00
2018-06-15T17:42:23.495Z,95379.00
2018-06-15T17:44:52.723Z,95380.00
2018-06-15T17:47:21.543Z,95382.00
2018-06-15T17:49:50.674Z,95380.00
2018-06-15T17:52:19.777Z,95384.00
2018-06-15T17:54:48.937Z,95380.00
2018-06-15T17:57:18.282Z,95391.00
2018-06-15T17:59:47.492Z,95392.00
2018-06-15T18:02:16.673Z,95399.00
2018-06-15T18:04:45.693Z,95400.00
2018-06-15T18:07:14.854Z,95396.00
2018-06-15T18:09:43.950Z,95391.00
2018-06-15T18:12:13.198Z,95400.00
2018-06-15T18:14:42.608Z,95399.00
2018-06-15T18:17:11.755Z,95396.00
2018-06-15T18:19:40.839Z,95391.00
2018-06-15T18:22:10.038Z,95390.00
2018-06-15T18:24:39.182Z,95389.00
2018-06-15T18:27:08.374Z,95387.00
2018-06-15T18:29:37.555Z,95384.00
2018-06-15T18:32:06.787Z,95388.00
2018-06-15T18:34:35.921Z,95389.00
2018-06-15T18:37:05.151Z,95389.00
2018-06-15T18:39:34.350Z,95393.00
2018-06-15T18:42:03.408Z,95387.00
2018-06-15T18:44:32.709Z,95387.00
2018-06-15T18:47:01.903Z,95390.00
2018-06-15T18:49:31.178Z,95395.00
2018-06-15T18:52:01.605Z,95401.00
2018-06-15T18:54:30.793Z,95407.00
2018-06-15T18:56:59.882Z,95405.00
2018-06-15T18:59:29.018Z,95407.00
2018-06-15T19:01:58.081Z,95408.00
2018-06-15T19:04:27.229Z,95411.00
2018-06-15T19:06:56.397Z,95410.00
2018-06-15T19:09:25.559Z,95411.00
2018-06-15T19:11:54.706Z,95415.00
2018-06-15T19:14:23.877Z,95413.00
2018-06-15T19:16:52.986Z,95416.00
2018-06-15T19:19:22.102Z,95412.00
2018-06-15T19:21:51.342Z,95414.00
2018-06-15T19:24:20.382Z,95420.00
2018-06-15T19:26:49.681Z,95423.00
2018-06-15T19:29:18.734Z,95421.00
2018-06-15T19:31:47.846Z,95428.00
2018-06-15T19:34:16.938Z,95421.00
2018-06-15T19:36:46.098Z,95421.00
2018-06-15T19:39:15.265Z,95418.00
2018-06-15T19:41:44.393Z,95423.00
2018-06-15T19:44:13.574Z,95426.00
2018-06-15T19:46:42.691Z,95422.00
2018-06-15T19:49:11.867Z,95422.00
2018-06-15T19:51:41.071Z,95426.00
2018-06-15T19:54:10.230Z,95430.00
2018-06-15T19:56:39.333Z,95439.00
2018-06-15T19:59:08.596Z,95432.00
2018-06-15T20:01:37.635Z,95430.00
2018-06-15T20:04:06.737Z,95434.00
2018-06-15T20:06:35.961Z,95442.00
2018-06-15T20:09:08.186Z,95441.00
2018-06-15T20:11:38.057Z,95434.00
2018-06-15T20:14:07.251Z,95436.00
2018-06-15T20:16:36.442Z,95440.00
2018-06-15T20:19:05.527Z,95458.00
2018-06-15T20:21:34.633Z,95462.00
2018-06-15T20:24:03.890Z,95460.00
2018-06-15T20:26:33.086Z,95459.00
2018-06-15T20:29:02.330Z,95460.00
2018-06-15T20:31:31.362Z,95459.00
2018-06-15T20:34:00.514Z,95473.00
2018-06-15T20:36:29.702Z,95466.00
2018-06-15T20:38:58.921Z,95465.00
2018-06-15T20:41:28.018Z,95462.00
2018-06-15T20:43:57.070Z,95463.00
2018-06-15T20:46:25.961Z,95472.00
2018-06-15T20:48:55.107Z,95469.00
2018-06-15T20:51:24.259Z,95466.00
2018-06-15T20:53:53.089Z,95463.00
2018-06-15T20:56:22.278Z,95465.00
2018-06-15T20:58:51.577Z,95452.00
2018-06-15T21:01:20.673Z,95459.00
2018-06-15T21:03:50.126Z,95462.00
2018-06-15T21:06:19.322Z,95463.00
2018-06-15T21:08:48.617Z,95464.00
2018-06-15T21:11:17.766Z,95465.00
2018-06-15T21:13:46.892Z,95465.00
2018-06-15T21:16:16.037Z,95460.00
2018-06-15T21:18:45.190Z,95463.00
2018-06-15T21:21:14.442Z,95470.00
2018-06-15T21:23:43.622Z,95464.00
2018-06-15T21:26:12.777Z,95468.00
2018-06-15T21:28:41.962Z,95466.00
2018-06-15T21:31:11.053Z,95465.00
2018-06-15T21:33:40.158Z,95465.00
2018-06-15T21:36:09.334Z,95462.00
2018-06-15T21:38:38.582Z,95464.00
2018-06-15T21:41:07.823Z,95460.00
2018-06-15T21:43:38.671Z,95463.00
2018-06-15T21:46:07.765Z,95464.00
2018-06-15T21:48:36.946Z,95462.00
2018-06-15T21:51:06.157Z,95458.00
2018-06-15T21:53:35.329Z,95463.00
2018-06-15T21:56:04.500Z,95454.00
2018-06-15T21:58:33.629Z,95459.00
2018-06-15T22:01:02.806Z,95459.00
2018-06-15T22:03:32.047Z,95463.00
2018-06-15T22:06:01.224Z,95464.00
2018-06-15T22:08:30.370Z,95461.00
2018-06-15T22:10:59.426Z,95449.00
2018-06-15T22:13:28.581Z,95461.00
2018-06-15T22:15:57.727Z,95459.00
2018-06-15T22:18:26.892Z,95467.00
2018-06-15T22:20:56.150Z,95463.00
2018-06-15T22:23:25.398Z,95463.00
2018-06-15T22:25:54.575Z,95451.00
2018-06-15T22:28:23.734Z,95463.00
2018-06-15T22:30:52.942Z,95463.00
2018-06-15T22:33:22.138Z,95465.00
2018-06-15T22:35:51.389Z,95463.00
2018-06-15T22:38:20.746Z,95469.00
2018-06-15T22:40:49.903Z,95468.00
2018-06-15T22:43:19.033Z,95470.00
2018-06-15T22:45:49.281Z,95463.00
2018-06-15T22:48:18.546Z,95463.00
2018-06-15T22:50:47.670Z,95444.00
2018-06-15T22:53:16.921Z,95454.00
2018-06-15T22:55:46.125Z,95459.00
2018-06-15T22:58:15.328Z,95463.00
2018-06-15T23:00:44.511Z,95454.00
2018-06-15T23:03:13.724Z,95454.00
2018-06-15T23:05:42.892Z,95454.00
2018-06-15T23:08:12.002Z,95460.00
2018-06-15T23:10:41.190Z,95464.00
2018-06-15T23:13:10.357Z,95454.00
2018-06-15T23:15:39.620Z,95448.00
2018-06-15T23:18:08.822Z,95453.00
2018-06-15T23:20:37.989Z,95448.00
2018-06-15T23:23:07.030Z,95450.00
2018-06-15T23:25:36.298Z,95453.00
2018-06-15T23:28:05.551Z,95443.00
2018-06-15T23:30:35.782Z,95459.00
2018-06-15T23:33:04.891Z,95451.00
2018-06-15T23:35:34.054Z,95449.00
2018-06-15T23:38:03.287Z,95450.00
2018-06-15T23:40:32.503Z,95451.00
2018-06-15T23:43:01.731Z,95444.00
2018-06-15T23:45:30.884Z,95447.00
2018-06-15T23:48:00.023Z,95444.00
2018-06-15T23:50:29.117Z,95441.00
2018-06-15T23:52:58.039Z,95438.00
2018-06-15T23:55:27.190Z,95451.00
2018-06-15T23:57:56.373Z,95451.00
